createdAt,value
2023-08-16T00:01:47.525Z,20.50
2023-08-16T00:04:18.568Z,20.20
2023-08-16T00:06:49.676Z,20.40
2023-08-16T00:09:21.250Z,20.40
2023-08-16T00:11:51.384Z,20.10
2023-08-16T00:14:24.842Z,20.40
2023-08-16T00:16:54.779Z,20.40
2023-08-16T00:19:25.048Z,20.30
2023-08-16T00:21:55.270Z,20.10
2023-08-16T00:24:25.298Z,20.10
2023-08-16T00:26:55.359Z,20.20
2023-08-16T00:29:27.175Z,20.40
2023-08-16T00:31:59.826Z,20.30
2023-08-16T00:34:29.771Z,20.40
2023-08-16T00:36:59.892Z,20.30
2023-08-16T00:39:30.173Z,19.70
2023-08-16T00:42:00.241Z,20.10
2023-08-16T00:44:32.615Z,20.10
2023-08-16T00:47:02.867Z,20.20
2023-08-16T00:49:33.671Z,20.70
2023-08-16T00:52:05.012Z,20.30
2023-08-16T00:54:35.380Z,20.10
2023-08-16T00:57:06.538Z,20.30
2023-08-16T00:59:39.324Z,20.10
2023-08-16T01:02:09.349Z,19.80
2023-08-16T01:04:39.456Z,20.10
2023-08-16T01:07:10.018Z,20.10
2023-08-16T01:09:40.057Z,20.20
2023-08-16T01:12:15.719Z,20.00
2023-08-16T01:14:52.638Z,20.10
2023-08-16T01:17:26.116Z,20.10
2023-08-16T01:19:59.784Z,20.30
2023-08-16T01:22:40.920Z,20.20
2023-08-16T01:25:27.784Z,20.10
2023-08-16T01:27:59.588Z,20.10
2023-08-16T01:30:30.433Z,20.00
2023-08-16T01:33:08.873Z,20.00
2023-08-16T01:35:39.489Z,20.00
2023-08-16T01:38:11.321Z,19.90
2023-08-16T01:40:44.544Z,19.90
2023-08-16T01:43:18.246Z,19.60
2023-08-16T01:45:50.360Z,19.90
2023-08-16T01:48:21.346Z,19.70
2023-08-16T01:50:51.732Z,19.80
2023-08-16T01:53:21.818Z,20.00
2023-08-16T01:55:51.683Z,19.70
2023-08-16T01:58:23.349Z,19.90
2023-08-16T02:00:53.569Z,19.70
2023-08-16T02:03:23.836Z,19.90
2023-08-16T02:05:53.818Z,19.90
2023-08-16T02:08:24.095Z,19.90
2023-08-16T02:10:54.200Z,19.90
2023-08-16T02:13:25.997Z,19.70
2023-08-16T02:16:02.672Z,19.90
2023-08-16T02:18:33.680Z,19.60
2023-08-16T02:21:03.580Z,19.90
2023-08-16T02:23:33.526Z,19.90
2023-08-16T02:26:03.659Z,19.40
2023-08-16T02:28:35.322Z,19.90
2023-08-16T02:31:08.546Z,19.60
2023-08-16T02:33:38.887Z,19.70
2023-08-16T02:36:08.862Z,19.90
2023-08-16T02:38:39.308Z,19.60
2023-08-16T02:41:09.258Z,19.70
2023-08-16T02:43:40.978Z,19.80
2023-08-16T02:46:11.168Z,19.70
2023-08-16T02:48:41.527Z,19.70
2023-08-16T02:51:11.623Z,19.80
2023-08-16T02:53:42.228Z,19.90
2023-08-16T02:56:12.313Z,19.50
2023-08-16T02:58:43.861Z,19.80
2023-08-16T03:01:14.377Z,19.70
2023-08-16T03:03:45.236Z,19.90
2023-08-16T03:06:15.658Z,19.80
2023-08-16T03:08:45.725Z,19.60
2023-08-16T03:11:16.117Z,19.90
2023-08-16T03:13:47.623Z,19.80
2023-08-16T03:16:17.720Z,19.60
2023-08-16T03:18:47.627Z,19.30
2023-08-16T03:21:17.887Z,19.60
2023-08-16T03:23:47.984Z,19.80
2023-08-16T03:26:17.884Z,19.80
2023-08-16T03:28:49.594Z,19.50
2023-08-16T03:31:19.594Z,19.80
2023-08-16T03:33:49.558Z,19.70
2023-08-16T03:36:19.651Z,19.80
2023-08-16T03:38:49.755Z,19.80
2023-08-16T03:41:19.700Z,19.60
2023-08-16T03:43:51.419Z,19.80
2023-08-16T03:46:21.879Z,19.70
2023-08-16T03:48:51.782Z,19.80
2023-08-16T03:51:21.864Z,19.70
2023-08-16T03:53:51.830Z,19.20
2023-08-16T03:56:21.973Z,19.70
2023-08-16T03:58:53.603Z,19.80
2023-08-16T04:01:24.744Z,19.80
2023-08-16T04:03:54.593Z,19.70
2023-08-16T04:06:24.622Z,19.60
2023-08-16T04:08:54.708Z,19.80
2023-08-16T04:11:24.820Z,19.80
2023-08-16T04:13:56.685Z,19.60
2023-08-16T04:16:26.813Z,19.90
2023-08-16T04:18:56.804Z,19.80
2023-08-16T04:21:27.367Z,19.60
2023-08-16T04:23:57.427Z,19.80
2023-08-16T04:26:27.805Z,19.70
2023-08-16T04:28:59.652Z,19.60
2023-08-16T04:31:30.214Z,19.60
2023-08-16T04:34:00.761Z,19.70
2023-08-16T04:36:31.842Z,20.10
2023-08-16T04:39:02.394Z,19.60
2023-08-16T04:41:32.662Z,19.80
2023-08-16T04:44:04.410Z,19.70
2023-08-16T04:46:34.486Z,19.90
2023-08-16T04:49:04.434Z,19.80
2023-08-16T04:51:34.522Z,19.60
2023-08-16T04:54:04.788Z,19.80
2023-08-16T04:56:34.905Z,19.80
2023-08-16T04:59:13.679Z,19.70
2023-08-16T05:01:44.095Z,19.70
2023-08-16T05:04:14.263Z,19.80
2023-08-16T05:06:44.695Z,19.80
2023-08-16T05:09:14.805Z,19.60
2023-08-16T05:11:44.833Z,19.90
2023-08-16T05:14:16.425Z,19.80
2023-08-16T05:16:46.557Z,20.10
2023-08-16T05:19:16.770Z,20.20
2023-08-16T05:21:47.079Z,19.70
2023-08-16T05:24:17.162Z,19.70
2023-08-16T05:26:49.154Z,19.90
2023-08-16T05:29:21.145Z,20.00
2023-08-16T05:31:51.232Z,19.90
2023-08-16T05:34:24.866Z,19.90
2023-08-16T05:36:55.917Z,19.90
2023-08-16T05:39:26.502Z,19.90
2023-08-16T05:41:56.795Z,19.60
2023-08-16T05:44:28.364Z,19.40
2023-08-16T05:46:58.513Z,19.90
2023-08-16T05:49:30.655Z,20.20
2023-08-16T05:52:03.827Z,20.00
2023-08-16T05:54:33.904Z,20.00
2023-08-16T05:57:04.179Z,19.50
2023-08-16T05:59:36.358Z,19.80
2023-08-16T06:02:08.706Z,20.10
2023-08-16T06:04:38.892Z,20.10
2023-08-16T06:07:09.036Z,20.20
2023-08-16T06:09:38.983Z,20.10
2023-08-16T06:12:09.705Z,20.00
2023-08-16T06:14:41.428Z,20.10
2023-08-16T06:17:11.387Z,20.00
2023-08-16T06:19:41.519Z,20.10
2023-08-16T06:22:11.926Z,20.00
2023-08-16T06:24:42.002Z,20.10
2023-08-16T06:27:13.302Z,20.10
2023-08-16T06:29:45.068Z,20.20
2023-08-16T06:32:15.258Z,20.20
2023-08-16T06:34:45.352Z,19.90
2023-08-16T06:37:15.227Z,20.30
2023-08-16T06:39:50.054Z,20.30
2023-08-16T06:42:24.388Z,20.30
2023-08-16T06:45:03.382Z,20.40
2023-08-16T06:47:33.906Z,20.40
2023-08-16T06:50:06.258Z,20.50
2023-08-16T06:52:37.137Z,20.70
2023-08-16T06:55:07.850Z,20.50
2023-08-16T06:57:37.885Z,20.70
2023-08-16T07:00:10.848Z,20.80
2023-08-16T07:02:41.036Z,20.60
2023-08-16T07:05:15.363Z,20.70
2023-08-16T07:07:45.922Z,20.70
2023-08-16T07:10:16.623Z,20.90
2023-08-16T07:12:46.762Z,20.90
2023-08-16T07:15:19.283Z,20.90
2023-08-16T07:17:49.619Z,20.80
2023-08-16T07:20:20.255Z,20.70
2023-08-16T07:22:50.291Z,20.90
2023-08-16T07:25:21.116Z,20.90
2023-08-16T07:27:51.438Z,20.90
2023-08-16T07:30:23.785Z,21.00
2023-08-16T07:32:53.962Z,20.90
2023-08-16T07:35:24.246Z,21.10
2023-08-16T07:37:54.133Z,20.70
2023-08-16T07:40:24.796Z,21.00
2023-08-16T07:43:01.052Z,20.70
2023-08-16T07:45:33.143Z,20.90
2023-08-16T07:48:03.429Z,21.00
2023-08-16T07:50:35.156Z,21.00
2023-08-16T07:53:05.916Z,21.10
2023-08-16T07:55:36.513Z,21.20
2023-08-16T07:58:07.643Z,21.30
2023-08-16T08:00:39.985Z,21.30
2023-08-16T08:03:11.699Z,21.30
2023-08-16T08:05:42.689Z,21.10
2023-08-16T08:08:13.036Z,21.40
2023-08-16T08:10:51.509Z,21.50
2023-08-16T08:13:27.240Z,21.50
2023-08-16T08:16:00.783Z,21.90
2023-08-16T08:18:32.536Z,21.90
2023-08-16T08:21:03.031Z,22.00
2023-08-16T08:23:33.187Z,22.20
2023-08-16T08:26:03.486Z,22.20
2023-08-16T08:28:33.602Z,22.20
2023-08-16T08:31:06.620Z,22.30
2023-08-16T08:33:36.842Z,22.10
2023-08-16T08:36:08.336Z,22.10
2023-08-16T08:38:38.262Z,22.10
2023-08-16T08:41:08.335Z,22.20
2023-08-16T08:43:49.236Z,22.20
2023-08-16T08:46:32.579Z,22.20
2023-08-16T08:49:05.217Z,22.40
2023-08-16T08:51:37.752Z,22.30
2023-08-16T08:54:10.134Z,22.50
2023-08-16T08:56:42.086Z,22.90
2023-08-16T08:59:15.844Z,23.30
2023-08-16T09:01:50.968Z,23.60
2023-08-16T09:04:23.285Z,23.50
2023-08-16T09:06:54.274Z,23.50
2023-08-16T09:09:26.211Z,23.60
2023-08-16T09:11:56.913Z,23.70
2023-08-16T09:14:27.932Z,23.70
2023-08-16T09:17:00.589Z,23.80
2023-08-16T09:19:31.868Z,24.10
2023-08-16T09:22:04.356Z,24.30
2023-08-16T09:24:38.441Z,24.50
2023-08-16T09:27:09.615Z,24.70
2023-08-16T09:29:43.181Z,24.90
2023-08-16T09:32:17.206Z,25.20
2023-08-16T09:34:54.665Z,25.10
2023-08-16T09:37:27.735Z,25.10
2023-08-16T09:40:01.715Z,25.10
2023-08-16T09:42:35.986Z,25.00
2023-08-16T09:45:06.438Z,24.90
2023-08-16T09:50:23.758Z,24.70
2023-08-16T09:52:53.892Z,24.60
2023-08-16T09:55:31.405Z,24.70
2023-08-16T09:58:02.938Z,24.90
2023-08-16T10:00:34.775Z,25.20
2023-08-16T10:03:10.463Z,25.30
2023-08-16T10:08:14.360Z,25.30
2023-08-16T10:10:44.963Z,25.50
2023-08-16T10:13:15.690Z,25.50
2023-08-16T10:15:49.194Z,25.30
2023-08-16T10:18:24.424Z,25.20
2023-08-16T10:20:57.262Z,25.10
2023-08-16T10:23:28.308Z,25.00
2023-08-16T10:26:04.525Z,24.90
2023-08-16T10:28:35.836Z,25.00
2023-08-16T10:33:47.876Z,25.20
2023-08-16T10:36:18.954Z,25.10
2023-08-16T10:38:59.845Z,25.30
2023-08-16T10:41:30.956Z,25.60
2023-08-16T10:44:01.496Z,25.90
2023-08-16T10:46:33.551Z,26.20
2023-08-16T10:49:07.907Z,26.50
2023-08-16T10:51:46.624Z,26.70
2023-08-16T10:54:17.924Z,27.00
2023-08-16T10:56:49.275Z,27.00
2023-08-16T10:59:19.657Z,27.20
2023-08-16T11:01:51.474Z,27.10
2023-08-16T11:04:23.383Z,27.10
2023-08-16T11:07:02.457Z,27.20
2023-08-16T11:09:33.084Z,27.40
2023-08-16T11:12:05.735Z,27.40
2023-08-16T11:14:38.060Z,27.60
2023-08-16T11:17:08.351Z,27.70
2023-08-16T11:19:39.946Z,27.80
2023-08-16T11:22:12.637Z,27.50
2023-08-16T11:24:42.776Z,27.40
2023-08-16T11:27:13.176Z,27.20
2023-08-16T11:29:50.452Z,26.90
2023-08-16T11:32:32.236Z,27.00
2023-08-16T11:35:04.080Z,27.30
2023-08-16T11:37:34.246Z,27.60
2023-08-16T11:40:06.366Z,27.80
2023-08-16T11:42:36.900Z,27.80
2023-08-16T11:45:22.074Z,27.80
2023-08-16T11:47:55.568Z,28.10
2023-08-16T11:50:29.963Z,28.60
2023-08-16T11:53:00.795Z,28.70
2023-08-16T11:55:31.640Z,28.40
2023-08-16T11:58:10.666Z,28.40
2023-08-16T12:00:41.729Z,29.00
2023-08-16T12:03:13.128Z,29.50
2023-08-16T12:05:45.550Z,29.40
2023-08-16T12:08:16.444Z,29.10
2023-08-16T12:10:55.803Z,28.70
2023-08-16T12:13:26.708Z,28.30
2023-08-16T12:15:56.836Z,28.10
2023-08-16T12:18:27.157Z,28.20
2023-08-16T12:20:58.584Z,28.50
2023-08-16T12:23:28.681Z,28.60
2023-08-16T12:25:58.938Z,28.50
2023-08-16T12:28:29.018Z,28.60
2023-08-16T12:30:59.145Z,28.50
2023-08-16T12:33:29.280Z,28.20
2023-08-16T12:36:01.817Z,27.90
2023-08-16T12:38:31.729Z,27.70
2023-08-16T12:41:02.161Z,27.70
2023-08-16T12:43:35.700Z,27.90
2023-08-16T12:46:09.579Z,28.30
2023-08-16T12:48:41.309Z,28.70
2023-08-16T12:53:47.427Z,29.00
2023-08-16T12:56:17.523Z,29.00
2023-08-16T12:58:56.857Z,29.00
2023-08-16T13:01:41.526Z,28.80
2023-08-16T13:04:14.077Z,28.60
2023-08-16T13:11:59.217Z,28.10
2023-08-16T13:17:24.417Z,27.90
2023-08-16T13:20:02.751Z,28.20
2023-08-16T13:22:37.302Z,28.30
2023-08-16T13:27:42.299Z,28.30
2023-08-16T13:30:46.735Z,28.40
2023-08-16T13:33:08.189Z,28.30
2023-08-16T13:38:35.872Z,28.20
2023-08-16T13:43:44.355Z,28.70
2023-08-16T13:46:15.393Z,28.70
2023-08-16T13:48:45.629Z,28.50
2023-08-16T13:51:15.568Z,28.30
2023-08-16T13:53:47.791Z,28.00
2023-08-16T13:56:18.855Z,27.80
2023-08-16T13:58:49.437Z,27.60
2023-08-16T14:01:19.688Z,27.50
2023-08-16T14:03:49.935Z,27.40
2023-08-16T14:06:20.148Z,27.30
2023-08-16T14:08:52.228Z,27.20
2023-08-16T14:11:23.264Z,27.20
2023-08-16T14:13:54.958Z,27.30
2023-08-16T14:16:26.694Z,27.50
2023-08-16T14:18:58.422Z,27.70
2023-08-16T14:21:35.212Z,27.80
2023-08-16T14:24:12.902Z,28.00
2023-08-16T14:26:43.039Z,28.70
2023-08-16T14:29:14.607Z,29.50
2023-08-16T14:31:45.026Z,30.30
2023-08-16T14:34:15.632Z,31.10
2023-08-16T14:36:45.913Z,31.40
2023-08-16T14:39:17.986Z,31.20
2023-08-16T14:41:48.303Z,31.20
2023-08-16T14:44:18.450Z,31.20
2023-08-16T14:46:49.028Z,31.30
2023-08-16T14:49:19.157Z,31.20
2023-08-16T14:51:49.273Z,30.80
2023-08-16T14:54:20.981Z,30.40
2023-08-16T14:56:50.918Z,29.90
2023-08-16T14:59:21.263Z,29.60
2023-08-16T15:01:51.615Z,29.20
2023-08-16T15:04:21.433Z,29.00
2023-08-16T15:06:51.569Z,28.70
2023-08-16T15:09:23.500Z,28.50
2023-08-16T15:11:53.559Z,28.20
2023-08-16T15:14:23.577Z,28.00
2023-08-16T15:16:53.868Z,27.80
2023-08-16T15:19:25.094Z,27.70
2023-08-16T15:21:55.169Z,27.60
2023-08-16T15:24:26.888Z,27.50
2023-08-16T15:26:57.502Z,27.40
2023-08-16T15:29:29.573Z,27.30
2023-08-16T15:32:06.081Z,27.20
2023-08-16T15:34:37.306Z,27.10
2023-08-16T15:37:07.563Z,27.00
2023-08-16T15:39:39.495Z,26.90
2023-08-16T15:42:10.639Z,26.90
2023-08-16T15:44:41.309Z,26.90
2023-08-16T15:47:11.261Z,27.00
2023-08-16T15:49:42.566Z,27.00
2023-08-16T15:52:13.095Z,26.90
2023-08-16T15:54:45.225Z,26.90
2023-08-16T15:57:15.167Z,26.90
2023-08-16T15:59:48.522Z,26.90
2023-08-16T16:02:19.208Z,26.80
2023-08-16T16:04:50.464Z,26.80
2023-08-16T16:07:20.425Z,26.80
2023-08-16T16:09:52.171Z,26.70
2023-08-16T16:12:22.393Z,26.70
2023-08-16T16:14:52.454Z,26.70
2023-08-16T16:17:24.393Z,26.70
2023-08-16T16:19:54.718Z,26.70
2023-08-16T16:22:24.864Z,26.60
2023-08-16T16:24:56.312Z,26.60
2023-08-16T16:27:26.778Z,26.60
2023-08-16T16:29:57.319Z,26.60
2023-08-16T16:32:27.788Z,26.60
2023-08-16T16:34:59.010Z,26.60
2023-08-16T16:37:29.045Z,26.60
2023-08-16T16:40:00.663Z,26.60
2023-08-16T16:42:30.695Z,26.50
2023-08-16T16:45:00.949Z,26.50
2023-08-16T16:47:30.979Z,26.40
2023-08-16T16:50:01.040Z,26.40
2023-08-16T16:52:31.256Z,26.40
2023-08-16T16:55:02.933Z,26.30
2023-08-16T16:57:34.122Z,26.30
2023-08-16T17:00:07.856Z,26.20
2023-08-16T17:02:37.966Z,26.20
2023-08-16T17:05:08.050Z,26.20
2023-08-16T17:07:38.078Z,26.10
2023-08-16T17:10:11.176Z,26.10
2023-08-16T17:12:41.584Z,26.10
2023-08-16T17:15:12.838Z,26.00
2023-08-16T17:17:43.008Z,26.00
2023-08-16T17:20:13.710Z,26.00
2023-08-16T17:22:43.972Z,25.90
2023-08-16T17:25:16.351Z,25.90
2023-08-16T17:27:46.588Z,25.90
2023-08-16T17:30:17.194Z,25.80
2023-08-16T17:32:47.488Z,25.80
2023-08-16T17:35:17.847Z,25.80
2023-08-16T17:37:47.800Z,25.70
2023-08-16T17:40:20.005Z,25.70
2023-08-16T17:42:49.987Z,25.70
2023-08-16T17:45:20.450Z,25.70
2023-08-16T17:47:50.443Z,25.60
2023-08-16T17:50:20.903Z,25.60
2023-08-16T17:52:51.068Z,25.60
2023-08-16T17:55:22.988Z,25.50
2023-08-16T17:57:53.327Z,25.50
2023-08-16T18:00:23.939Z,25.50
2023-08-16T18:02:54.129Z,25.50
2023-08-16T18:05:24.546Z,25.50
2023-08-16T18:07:54.617Z,25.50
2023-08-16T18:14:40.511Z,25.40
2023-08-16T18:17:10.559Z,25.20
2023-08-16T18:19:40.823Z,24.70
2023-08-16T18:22:10.792Z,24.40
2023-08-16T18:24:40.870Z,24.00
2023-08-16T18:30:59.643Z,23.40
2023-08-16T18:33:29.575Z,23.10
2023-08-16T18:35:59.678Z,22.90
2023-08-16T18:38:29.748Z,22.60
2023-08-16T18:41:03.280Z,22.40
2023-08-16T18:43:33.307Z,22.20
2023-08-16T18:46:05.177Z,22.00
2023-08-16T18:48:35.233Z,21.80
2023-08-16T18:51:05.801Z,21.60
2023-08-16T18:53:39.534Z,21.40
2023-08-16T18:56:09.728Z,21.30
2023-08-16T18:58:39.617Z,21.30
2023-08-16T19:04:58.122Z,20.90
2023-08-16T19:07:28.337Z,21.10
2023-08-16T19:09:58.588Z,20.90
2023-08-16T19:12:28.811Z,20.90
2023-08-16T19:14:58.698Z,20.80
2023-08-16T19:17:30.021Z,20.70
2023-08-16T19:20:01.788Z,20.50
2023-08-16T19:22:32.666Z,20.80
2023-08-16T19:25:02.700Z,20.60
2023-08-16T19:27:33.039Z,20.50
2023-08-16T19:30:05.288Z,20.40
2023-08-16T19:32:35.405Z,20.40
2023-08-16T19:35:07.075Z,20.40
2023-08-16T19:37:37.094Z,20.50
2023-08-16T19:40:08.417Z,20.00
2023-08-16T19:42:38.566Z,20.40
2023-08-16T19:45:11.414Z,20.40
2023-08-16T19:47:41.588Z,20.40
2023-08-16T19:50:32.681Z,20.40
2023-08-16T19:53:02.813Z,20.50
2023-08-16T19:55:32.940Z,20.40
2023-08-16T19:58:02.853Z,20.00
2023-08-16T20:00:33.500Z,20.70
2023-08-16T20:03:03.970Z,20.30
2023-08-16T20:05:35.684Z,20.50
2023-08-16T20:08:05.831Z,20.60
2023-08-16T20:10:36.411Z,20.90
2023-08-16T20:13:06.812Z,20.70
2023-08-16T20:15:36.991Z,20.60
2023-08-16T20:18:07.373Z,20.60
2023-08-16T20:20:38.980Z,20.60
2023-08-16T20:23:10.780Z,20.90
2023-08-16T20:25:40.791Z,20.50
2023-08-16T20:28:11.776Z,20.50
2023-08-16T20:30:41.946Z,20.60
2023-08-16T20:33:12.051Z,20.60
2023-08-16T20:35:43.595Z,20.60
2023-08-16T20:38:13.796Z,20.60
2023-08-16T20:40:43.820Z,20.90
2023-08-16T20:43:13.845Z,20.70
2023-08-16T20:45:43.740Z,20.60
2023-08-16T20:48:13.797Z,20.50
2023-08-16T20:50:45.257Z,20.60
2023-08-16T20:53:15.587Z,20.60
2023-08-16T20:55:45.547Z,20.90
2023-08-16T20:58:15.888Z,20.60
2023-08-16T21:00:46.047Z,20.60
2023-08-16T21:03:16.337Z,20.60
2023-08-16T21:05:47.660Z,20.60
2023-08-16T21:08:18.109Z,20.60
2023-08-16T21:10:48.252Z,20.60
2023-08-16T21:13:19.932Z,20.80
2023-08-16T21:15:50.210Z,20.60
2023-08-16T21:18:20.253Z,20.70
2023-08-16T21:20:51.749Z,20.60
2023-08-16T21:23:22.114Z,20.40
2023-08-16T21:25:54.712Z,20.20
2023-08-16T21:28:24.919Z,20.50
2023-08-16T21:30:55.127Z,20.60
2023-08-16T21:33:25.177Z,20.90
2023-08-16T21:35:57.957Z,20.60
2023-08-16T21:38:28.005Z,20.60
2023-08-16T21:41:00.598Z,20.70
2023-08-16T21:43:31.244Z,20.60
2023-08-16T21:46:01.437Z,20.60
2023-08-16T21:48:31.664Z,20.40
2023-08-16T21:51:03.452Z,20.70
2023-08-16T21:53:33.644Z,20.60
2023-08-16T21:56:09.080Z,20.50
2023-08-16T21:58:39.434Z,20.20
2023-08-16T22:01:09.530Z,20.60
2023-08-16T22:03:39.736Z,20.50
2023-08-16T22:06:11.598Z,20.50
2023-08-16T22:08:43.596Z,20.20
2023-08-16T22:11:13.681Z,20.50
2023-08-16T22:13:44.442Z,20.50
2023-08-16T22:16:14.699Z,20.20
2023-08-16T22:18:45.023Z,20.50
2023-08-16T22:21:17.882Z,20.50
2023-08-16T22:23:48.142Z,20.50
2023-08-16T22:26:18.225Z,20.40
2023-08-16T22:28:57.363Z,20.50
2023-08-16T22:31:29.675Z,20.70
2023-08-16T22:34:01.207Z,20.50
2023-08-16T22:36:32.873Z,20.40
2023-08-16T22:39:02.930Z,20.40
2023-08-16T22:41:33.883Z,20.10
2023-08-16T22:44:03.928Z,20.10
2023-08-16T22:46:34.636Z,20.30
2023-08-16T22:49:04.843Z,20.30
2023-08-16T22:51:36.935Z,20.20
2023-08-16T22:54:07.108Z,20.30
2023-08-16T22:56:37.437Z,20.10
2023-08-16T22:59:07.460Z,20.20
2023-08-16T23:01:37.587Z,20.20
2023-08-16T23:04:07.862Z,20.30
2023-08-16T23:06:39.867Z,20.30
2023-08-16T23:09:10.761Z,19.70
2023-08-16T23:11:40.826Z,20.40
2023-08-16T23:14:10.740Z,19.80
2023-08-16T23:16:40.913Z,20.20
2023-08-16T23:19:10.909Z,20.20
2023-08-16T23:21:42.445Z,20.40
2023-08-16T23:24:13.145Z,19.60
2023-08-16T23:26:43.197Z,20.10
2023-08-16T23:29:13.399Z,19.80
2023-08-16T23:31:43.656Z,19.40
2023-08-16T23:34:13.737Z,20.10
2023-08-16T23:36:45.409Z,19.80
2023-08-16T23:39:15.492Z,19.90
2023-08-16T23:41:45.402Z,20.20
2023-08-16T23:44:15.487Z,19.70
2023-08-16T23:46:45.547Z,20.00
2023-08-16T23:49:15.596Z,20.00
2023-08-16T23:51:47.386Z,20.20
2023-08-16T23:54:17.247Z,19.70
2023-08-16T23:56:48.728Z,20.00
2023-08-16T23:59:18.643Z,20.00
